createdAt,value
2019-06-01T00:02:12.583Z,18.26
2019-06-01T00:07:19.258Z,18.18
2019-06-01T00:12:25.958Z,18.15
2019-06-01T00:17:32.736Z,18.07
2019-06-01T00:22:39.425Z,17.88
2019-06-01T00:27:46.798Z,17.76
2019-06-01T00:32:55.775Z,17.76
2019-06-01T00:38:02.472Z,17.74
2019-06-01T00:43:09.050Z,17.55
2019-06-01T00:48:15.754Z,17.52
2019-06-01T00:53:22.434Z,17.58
2019-06-01T00:58:29.031Z,17.49
2019-06-01T01:03:35.610Z,17.26
2019-06-01T01:08:42.323Z,17.29
2019-06-01T01:13:49.242Z,17.26
2019-06-01T01:18:56.061Z,17.18
2019-06-01T01:24:02.894Z,17.30
2019-06-01T01:29:09.357Z,17.16
2019-06-01T01:34:15.960Z,17.12
2019-06-01T01:39:22.665Z,17.12
2019-06-01T01:44:29.234Z,17.03
2019-06-01T01:49:35.829Z,16.77
2019-06-01T01:54:43.337Z,16.82
2019-06-01T01:59:51.275Z,16.80
2019-06-01T02:04:58.035Z,16.82
2019-06-01T02:10:10.904Z,16.84
2019-06-01T02:15:18.292Z,16.77
2019-06-01T02:20:24.974Z,16.53
2019-06-01T02:25:32.152Z,16.50
2019-06-01T02:30:39.740Z,16.33
2019-06-01T02:35:46.325Z,16.43
2019-06-01T02:40:54.754Z,16.41
2019-06-01T02:46:03.402Z,16.23
2019-06-01T02:51:13.206Z,16.30
2019-06-01T02:56:19.834Z,16.46
2019-06-01T03:01:36.711Z,16.51
2019-06-01T03:06:45.328Z,16.60
2019-06-01T03:11:54.096Z,16.66
2019-06-01T03:17:02.015Z,16.79
2019-06-01T03:22:10.655Z,16.69
2019-06-01T03:27:19.185Z,16.94
2019-06-01T03:32:36.296Z,17.17
2019-06-01T03:37:34.622Z,17.27
2019-06-01T03:42:42.023Z,17.27
2019-06-01T03:47:49.945Z,17.34
2019-06-01T03:52:56.645Z,17.43
2019-06-01T03:58:04.952Z,17.47
2019-06-01T04:03:11.646Z,17.60
2019-06-01T04:08:19.264Z,17.84
2019-06-01T04:13:25.752Z,18.11
2019-06-01T04:18:32.839Z,18.27
2019-06-01T04:23:40.283Z,18.75
2019-06-01T04:28:47.067Z,20.07
2019-06-01T04:33:55.381Z,20.15
2019-06-01T04:39:03.307Z,20.25
2019-06-01T04:44:14.203Z,20.49
2019-06-01T04:49:23.414Z,20.73
2019-06-01T04:54:29.965Z,20.55
2019-06-01T04:59:37.940Z,20.38
2019-06-01T05:04:45.031Z,20.22
2019-06-01T05:09:51.552Z,20.53
2019-06-01T05:14:58.121Z,20.60
2019-06-01T05:20:10.370Z,20.88
2019-06-01T05:25:18.369Z,20.87
2019-06-01T05:30:25.184Z,21.20
2019-06-01T05:35:31.846Z,21.38
2019-06-01T05:40:41.923Z,22.06
2019-06-01T05:45:48.636Z,22.09
2019-06-01T05:50:55.760Z,22.15
2019-06-01T05:56:03.170Z,22.21
2019-06-01T06:01:10.369Z,22.14
2019-06-01T06:06:17.930Z,22.05
2019-06-01T06:11:24.670Z,21.86
2019-06-01T06:16:31.307Z,22.45
2019-06-01T06:21:37.912Z,22.59
2019-06-01T06:26:44.681Z,22.54
2019-06-01T06:31:51.387Z,22.28
2019-06-01T06:36:58.191Z,21.96
2019-06-01T06:42:08.510Z,22.32
2019-06-01T06:47:15.227Z,22.23
2019-06-01T06:52:21.910Z,21.87
2019-06-01T06:57:28.626Z,21.58
2019-06-01T07:02:36.428Z,21.95
2019-06-01T07:12:52.278Z,22.00
2019-06-01T07:17:59.089Z,22.15
2019-06-01T07:23:05.877Z,22.37
2019-06-01T07:28:12.702Z,22.48
2019-06-01T07:33:20.464Z,22.55
2019-06-01T07:38:28.742Z,22.74
2019-06-01T07:43:35.689Z,22.88
2019-06-01T07:48:42.400Z,23.05
2019-06-01T07:53:49.092Z,23.25
2019-06-01T07:58:55.873Z,23.47
2019-06-01T08:04:02.771Z,23.62
2019-06-01T08:09:09.466Z,23.26
2019-06-01T08:14:16.126Z,23.53
2019-06-01T08:19:23.780Z,23.75
2019-06-01T08:24:30.389Z,23.96
2019-06-01T08:29:37.027Z,24.22
2019-06-01T08:34:43.729Z,24.07
2019-06-01T08:39:52.485Z,23.87
2019-06-01T08:44:59.170Z,23.63
2019-06-01T08:50:07.633Z,23.83
2019-06-01T08:55:14.246Z,24.08
2019-06-01T09:00:21.287Z,23.78
2019-06-01T09:05:28.933Z,23.73
2019-06-01T09:10:36.011Z,23.93
2019-06-01T09:15:42.464Z,24.08
2019-06-01T09:20:48.718Z,24.38
2019-06-01T09:25:56.817Z,24.49
2019-06-01T09:31:04.881Z,24.55
2019-06-01T09:36:11.567Z,24.58
2019-06-01T09:41:18.174Z,24.41
2019-06-01T09:46:24.617Z,24.60
2019-06-01T09:51:31.397Z,24.80
2019-06-01T09:56:39.808Z,24.69
2019-06-01T10:01:46.190Z,24.64
2019-06-01T10:06:52.630Z,24.63
2019-06-01T10:11:59.126Z,24.53
2019-06-01T10:17:05.575Z,24.56
2019-06-01T10:22:12.037Z,24.60
2019-06-01T10:27:18.519Z,24.74
2019-06-01T10:32:24.860Z,24.85
2019-06-01T10:37:31.478Z,24.84
2019-06-01T10:42:38.189Z,24.81
2019-06-01T10:47:45.843Z,24.90
2019-06-01T10:52:52.389Z,24.82
2019-06-01T10:57:58.969Z,25.08
2019-06-01T11:03:05.624Z,25.23
2019-06-01T11:08:12.196Z,25.23
2019-06-01T11:13:18.611Z,25.22
2019-06-01T11:18:25.300Z,25.46
2019-06-01T11:23:33.211Z,25.55
2019-06-01T11:28:40.149Z,25.63
2019-06-01T11:33:46.963Z,25.63
2019-06-01T11:44:08.439Z,25.53
2019-06-01T11:49:14.825Z,25.76
2019-06-01T11:54:21.273Z,25.82
2019-06-01T11:59:27.841Z,25.84
2019-06-01T12:04:35.751Z,26.08
2019-06-01T12:09:45.968Z,26.07
2019-06-01T12:14:52.731Z,26.10
2019-06-01T12:19:59.290Z,26.07
2019-06-01T12:25:07.115Z,26.05
2019-06-01T12:30:14.023Z,26.13
2019-06-01T12:35:20.822Z,26.04
2019-06-01T12:40:27.392Z,26.10
2019-06-01T12:45:34.079Z,26.21
2019-06-01T12:50:40.992Z,26.34
2019-06-01T12:55:48.990Z,26.09
2019-06-01T13:00:55.674Z,26.09
2019-06-01T13:06:02.019Z,25.98
2019-06-01T13:11:08.877Z,25.95
2019-06-01T13:16:15.308Z,26.12
2019-06-01T13:21:21.938Z,26.07
2019-06-01T13:26:29.150Z,26.06
2019-06-01T13:31:35.952Z,25.80
2019-06-01T13:36:42.537Z,25.65
2019-06-01T13:41:49.592Z,25.49
2019-06-01T13:46:56.395Z,25.45
2019-06-01T13:52:03.011Z,25.45
2019-06-01T13:57:09.703Z,25.46
2019-06-01T14:02:16.195Z,25.50
2019-06-01T14:07:22.670Z,25.51
2019-06-01T14:12:29.253Z,25.60
2019-06-01T14:17:35.620Z,25.63
2019-06-01T14:22:42.538Z,25.52
2019-06-01T14:27:50.114Z,25.38
2019-06-01T14:32:56.989Z,25.37
2019-06-01T14:38:03.697Z,25.43
2019-06-01T14:43:10.146Z,25.51
2019-06-01T14:48:16.530Z,25.58
2019-06-01T14:53:23.157Z,25.50
2019-06-01T14:58:30.206Z,25.34
2019-06-01T15:03:36.790Z,25.30
2019-06-01T15:08:43.350Z,25.38
2019-06-01T15:13:50.330Z,25.37
2019-06-01T15:18:57.696Z,25.21
2019-06-01T15:24:04.543Z,25.25
2019-06-01T15:29:10.877Z,25.15
2019-06-01T15:34:17.253Z,25.09
2019-06-01T15:39:25.407Z,25.16
2019-06-01T15:44:31.846Z,25.18
2019-06-01T15:49:38.115Z,25.14
2019-06-01T15:54:44.697Z,25.18
2019-06-01T15:59:52.435Z,25.18
2019-06-01T16:04:59.323Z,25.11
2019-06-01T16:10:09.700Z,25.11
2019-06-01T16:15:16.606Z,25.13
2019-06-01T16:20:23.390Z,25.10
2019-06-01T16:25:29.906Z,25.04
2019-06-01T16:30:36.349Z,25.00
2019-06-01T16:35:42.787Z,25.05
2019-06-01T16:40:49.383Z,25.05
2019-06-01T16:45:59.746Z,25.01
2019-06-01T16:51:06.117Z,25.03
2019-06-01T16:56:12.653Z,25.05
2019-06-01T17:01:19.279Z,25.06
2019-06-01T17:06:25.859Z,25.05
2019-06-01T17:11:33.342Z,25.07
2019-06-01T17:16:39.960Z,24.99
2019-06-01T17:21:49.055Z,24.95
2019-06-01T17:26:55.686Z,24.88
2019-06-01T17:32:18.974Z,24.76
2019-06-01T17:37:10.683Z,24.63
2019-06-01T17:42:17.380Z,24.52
2019-06-01T17:47:27.067Z,24.50
2019-06-01T17:52:32.319Z,24.53
2019-06-01T17:57:39.003Z,24.46
2019-06-01T18:02:45.430Z,24.41
2019-06-01T18:07:52.054Z,24.34
2019-06-01T18:12:58.487Z,24.23
2019-06-01T18:18:06.481Z,24.14
2019-06-01T18:23:13.569Z,24.07
2019-06-01T18:28:20.343Z,24.02
2019-06-01T18:33:27.168Z,23.93
2019-06-01T18:38:33.697Z,23.84
2019-06-01T18:43:40.186Z,23.75
2019-06-01T18:48:46.653Z,23.61
2019-06-01T18:53:54.440Z,23.42
2019-06-01T18:59:01.039Z,23.25
2019-06-01T19:04:09.700Z,23.10
2019-06-01T19:09:16.340Z,22.94
2019-06-01T19:14:22.856Z,22.84
2019-06-01T19:19:31.605Z,22.70
2019-06-01T19:24:38.157Z,22.39
2019-06-01T19:29:44.859Z,22.30
2019-06-01T19:34:51.645Z,22.21
2019-06-01T19:39:58.535Z,22.00
2019-06-01T19:45:23.543Z,21.90
2019-06-01T19:50:18.367Z,21.83
2019-06-01T19:55:24.853Z,21.69
2019-06-01T20:00:31.469Z,21.49
2019-06-01T20:05:37.982Z,21.24
2019-06-01T20:10:44.431Z,21.19
2019-06-01T20:15:50.883Z,21.18
2019-06-01T20:20:57.430Z,21.21
2019-06-01T20:26:04.182Z,21.05
2019-06-01T20:31:11.731Z,20.93
2019-06-01T20:36:18.625Z,20.59
2019-06-01T20:41:25.281Z,20.35
2019-06-01T20:46:31.854Z,20.42
2019-06-01T21:04:32.103Z,20.18
2019-06-01T21:19:38.283Z,20.18
2019-06-01T21:34:44.318Z,20.08
2019-06-01T21:49:50.752Z,19.83
2019-06-01T22:04:57.077Z,19.21
2019-06-01T22:20:03.252Z,18.91
2019-06-01T22:35:12.649Z,18.75
2019-06-01T22:50:18.933Z,18.55
2019-06-01T23:05:25.275Z,18.40
2019-06-01T23:20:32.238Z,18.45
2019-06-01T23:35:39.722Z,17.91
2019-06-01T23:50:46.029Z,17.85
